sensor_id;sensor_type;location;lat;lon;timestamp;pressure;altitude;pressure_sealevel;temperature;humidity
28000;BME280;15328;50.860;10.562;2023-01-09T00:01:35;94695.91;;;8.11;67.00
28000;BME280;15328;50.860;10.562;2023-01-09T00:06:35;94683.91;;;8.03;67.41
28000;BME280;15328;50.860;10.562;2023-01-09T00:11:36;94679.16;;;8.05;68.12
28000;BME280;15328;50.860;10.562;2023-01-09T00:16:36;94675.16;;;8.02;67.67
28000;BME280;15328;50.860;10.562;2023-01-09T00:21:37;94675.72;;;8.04;67.80
28000;BME280;15328;50.860;10.562;2023-01-09T00:26:37;94663.75;;;8.02;67.96
28000;BME280;15328;50.860;10.562;2023-01-09T00:31:37;94670.41;;;8.04;67.74
28000;BME280;15328;50.860;10.562;2023-01-09T00:36:38;94646.81;;;8.03;67.84
28000;BME280;15328;50.860;10.562;2023-01-09T00:41:44;94647.94;;;8.07;67.10
28000;BME280;15328;50.860;10.562;2023-01-09T00:46:48;94647.47;;;7.93;67.85
28000;BME280;15328;50.860;10.562;2023-01-09T00:51:50;94640.72;;;8.02;67.71
28000;BME280;15328;50.860;10.562;2023-01-09T00:56:54;94630.13;;;8.02;67.25
28000;BME280;15328;50.860;10.562;2023-01-09T01:01:55;94625.94;;;8.06;67.54
28000;BME280;15328;50.860;10.562;2023-01-09T01:06:55;94622.25;;;8.07;67.72
28000;BME280;15328;50.860;10.562;2023-01-09T01:12:14;94635.69;;;8.01;67.76
28000;BME280;15328;50.860;10.562;2023-01-09T01:17:14;94628.88;;;7.88;68.56
28000;BME280;15328;50.860;10.562;2023-01-09T01:22:15;94626.66;;;7.80;68.67
28000;BME280;15328;50.860;10.562;2023-01-09T01:27:15;94622.09;;;7.59;69.47
28000;BME280;15328;50.860;10.562;2023-01-09T01:32:15;94616.38;;;7.67;69.35
28000;BME280;15328;50.860;10.562;2023-01-09T01:37:16;94612.88;;;7.61;70.00
28000;BME280;15328;50.860;10.562;2023-01-09T01:42:16;94607.75;;;7.55;70.37
28000;BME280;15328;50.860;10.562;2023-01-09T01:47:18;94593.59;;;7.44;71.08
28000;BME280;15328;50.860;10.562;2023-01-09T01:52:20;94584.06;;;7.43;71.00
28000;BME280;15328;50.860;10.562;2023-01-09T01:57:20;94585.16;;;7.47;71.16
28000;BME280;15328;50.860;10.562;2023-01-09T02:02:24;94592.06;;;7.48;71.22
28000;BME280;15328;50.860;10.562;2023-01-09T02:07:26;94579.94;;;7.35;71.71
28000;BME280;15328;50.860;10.562;2023-01-09T02:12:27;94559.44;;;7.42;71.42
28000;BME280;15328;50.860;10.562;2023-01-09T02:17:35;94557.75;;;7.36;71.70
28000;BME280;15328;50.860;10.562;2023-01-09T02:33:45;94501.09;;;7.32;71.39
28000;BME280;15328;50.860;10.562;2023-01-09T02:44:11;94490.91;;;7.41;71.95
28000;BME280;15328;50.860;10.562;2023-01-09T02:49:14;94492.66;;;7.35;72.08
28000;BME280;15328;50.860;10.562;2023-01-09T02:54:20;94498.59;;;7.42;72.56
28000;BME280;15328;50.860;10.562;2023-01-09T03:04:42;94483.03;;;7.46;71.83
28000;BME280;15328;50.860;10.562;2023-01-09T03:09:45;94484.44;;;7.54;71.81
28000;BME280;15328;50.860;10.562;2023-01-09T03:14:50;94478.41;;;7.58;71.16
28000;BME280;15328;50.860;10.562;2023-01-09T03:19:53;94483.88;;;7.52;71.80
28000;BME280;15328;50.860;10.562;2023-01-09T03:24:55;94481.50;;;7.50;71.83
28000;BME280;15328;50.860;10.562;2023-01-09T03:29:55;94482.34;;;7.56;71.60
28000;BME280;15328;50.860;10.562;2023-01-09T03:34:55;94480.19;;;7.53;71.96
28000;BME280;15328;50.860;10.562;2023-01-09T03:39:56;94475.53;;;7.60;72.31
28000;BME280;15328;50.860;10.562;2023-01-09T03:44:56;94484.00;;;7.62;71.87
28000;BME280;15328;50.860;10.562;2023-01-09T03:49:57;94486.91;;;7.60;72.68
28000;BME280;15328;50.860;10.562;2023-01-09T03:54:57;94481.91;;;7.64;72.71
28000;BME280;15328;50.860;10.562;2023-01-09T03:59:57;94486.72;;;7.67;72.97
28000;BME280;15328;50.860;10.562;2023-01-09T04:04:58;94492.34;;;7.70;72.68
28000;BME280;15328;50.860;10.562;2023-01-09T04:09:58;94492.00;;;7.67;72.99
28000;BME280;15328;50.860;10.562;2023-01-09T04:14:58;94478.13;;;7.77;72.07
28000;BME280;15328;50.860;10.562;2023-01-09T04:19:59;94472.50;;;7.73;72.36
28000;BME280;15328;50.860;10.562;2023-01-09T04:24:59;94480.47;;;7.73;72.81
28000;BME280;15328;50.860;10.562;2023-01-09T04:30:00;94472.50;;;7.73;72.83
28000;BME280;15328;50.860;10.562;2023-01-09T04:35:00;94478.06;;;7.71;73.21
28000;BME280;15328;50.860;10.562;2023-01-09T04:40:01;94504.28;;;7.73;73.10
28000;BME280;15328;50.860;10.562;2023-01-09T04:45:06;94499.28;;;7.77;73.31
28000;BME280;15328;50.860;10.562;2023-01-09T04:50:08;94498.59;;;7.64;73.86
28000;BME280;15328;50.860;10.562;2023-01-09T04:55:09;94517.00;;;7.76;73.67
28000;BME280;15328;50.860;10.562;2023-01-09T05:00:10;94535.59;;;7.81;73.30
28000;BME280;15328;50.860;10.562;2023-01-09T05:05:11;94549.09;;;7.80;73.13
28000;BME280;15328;50.860;10.562;2023-01-09T05:10:11;94543.53;;;7.81;73.45
28000;BME280;15328;50.860;10.562;2023-01-09T05:15:12;94545.56;;;7.74;73.53
28000;BME280;15328;50.860;10.562;2023-01-09T05:20:12;94563.91;;;7.81;73.26
28000;BME280;15328;50.860;10.562;2023-01-09T05:25:13;94563.25;;;7.90;72.93
28000;BME280;15328;50.860;10.562;2023-01-09T05:30:13;94581.22;;;7.88;72.99
28000;BME280;15328;50.860;10.562;2023-01-09T05:35:14;94581.06;;;7.95;73.29
28000;BME280;15328;50.860;10.562;2023-01-09T05:40:14;94614.34;;;7.91;73.14
28000;BME280;15328;50.860;10.562;2023-01-09T05:45:15;94603.84;;;7.96;72.21
28000;BME280;15328;50.860;10.562;2023-01-09T05:50:15;94617.63;;;7.98;72.20
28000;BME280;15328;50.860;10.562;2023-01-09T05:55:16;94615.81;;;7.82;71.99
28000;BME280;15328;50.860;10.562;2023-01-09T06:00:17;94620.94;;;7.88;71.59
28000;BME280;15328;50.860;10.562;2023-01-09T06:05:17;94630.09;;;7.81;71.47
28000;BME280;15328;50.860;10.562;2023-01-09T06:10:18;94633.53;;;7.81;71.10
28000;BME280;15328;50.860;10.562;2023-01-09T06:15:18;94650.91;;;7.72;71.05
28000;BME280;15328;50.860;10.562;2023-01-09T06:20:20;94650.91;;;7.72;71.05
28000;BME280;15328;50.860;10.562;2023-01-09T06:25:20;94666.38;;;7.47;70.40
28000;BME280;15328;50.860;10.562;2023-01-09T06:30:21;94689.06;;;7.42;70.25
28000;BME280;15328;50.860;10.562;2023-01-09T06:35:21;94707.13;;;7.46;69.87
28000;BME280;15328;50.860;10.562;2023-01-09T06:40:21;94725.19;;;7.20;69.13
28000;BME280;15328;50.860;10.562;2023-01-09T06:45:22;94737.53;;;7.15;70.35
28000;BME280;15328;50.860;10.562;2023-01-09T06:50:22;94743.63;;;7.15;69.56
28000;BME280;15328;50.860;10.562;2023-01-09T06:55:22;94730.00;;;6.95;68.72
28000;BME280;15328;50.860;10.562;2023-01-09T07:00:23;94737.00;;;7.01;68.63
28000;BME280;15328;50.860;10.562;2023-01-09T07:05:23;94731.38;;;6.97;68.13
28000;BME280;15328;50.860;10.562;2023-01-09T07:10:24;94739.31;;;6.97;67.94
28000;BME280;15328;50.860;10.562;2023-01-09T07:15:24;94740.25;;;6.91;68.25
28000;BME280;15328;50.860;10.562;2023-01-09T07:20:24;94759.56;;;6.92;67.86
28000;BME280;15328;50.860;10.562;2023-01-09T07:25:25;94755.78;;;6.88;68.05
28000;BME280;15328;50.860;10.562;2023-01-09T07:30:25;94746.50;;;6.85;67.99
28000;BME280;15328;50.860;10.562;2023-01-09T07:35:25;94757.41;;;6.77;67.87
28000;BME280;15328;50.860;10.562;2023-01-09T07:40:26;94766.94;;;6.78;67.93
28000;BME280;15328;50.860;10.562;2023-01-09T07:45:26;94768.56;;;6.79;68.29
28000;BME280;15328;50.860;10.562;2023-01-09T07:50:26;94785.91;;;6.75;68.14
28000;BME280;15328;50.860;10.562;2023-01-09T07:55:27;94794.50;;;6.82;68.11
28000;BME280;15328;50.860;10.562;2023-01-09T08:00:27;94806.34;;;6.79;68.20
28000;BME280;15328;50.860;10.562;2023-01-09T08:05:27;94811.66;;;6.79;67.56
28000;BME280;15328;50.860;10.562;2023-01-09T08:10:28;94807.06;;;6.87;67.12
28000;BME280;15328;50.860;10.562;2023-01-09T08:15:28;94809.69;;;6.87;67.14
28000;BME280;15328;50.860;10.562;2023-01-09T08:20:29;94808.66;;;6.76;65.70
28000;BME280;15328;50.860;10.562;2023-01-09T08:25:30;94817.25;;;6.83;66.31
28000;BME280;15328;50.860;10.562;2023-01-09T08:30:30;94825.88;;;6.90;66.31
28000;BME280;15328;50.860;10.562;2023-01-09T08:35:31;94826.94;;;6.89;66.14
28000;BME280;15328;50.860;10.562;2023-01-09T08:40:31;94823.94;;;6.86;66.10
28000;BME280;15328;50.860;10.562;2023-01-09T08:45:32;94829.69;;;6.82;66.28
28000;BME280;15328;50.860;10.562;2023-01-09T08:50:50;94840.81;;;6.85;65.92
28000;BME280;15328;50.860;10.562;2023-01-09T08:55:53;94843.25;;;6.86;65.72
28000;BME280;15328;50.860;10.562;2023-01-09T09:00:53;94855.53;;;6.92;66.01
28000;BME280;15328;50.860;10.562;2023-01-09T09:05:53;94856.78;;;7.01;66.07
28000;BME280;15328;50.860;10.562;2023-01-09T09:10:54;94865.38;;;7.08;65.36
28000;BME280;15328;50.860;10.562;2023-01-09T09:15:56;94877.13;;;7.12;65.17
28000;BME280;15328;50.860;10.562;2023-01-09T09:20:56;94864.00;;;7.06;64.55
28000;BME280;15328;50.860;10.562;2023-01-09T09:25:57;94862.06;;;7.13;64.24
28000;BME280;15328;50.860;10.562;2023-01-09T09:30:57;94875.81;;;7.27;64.19
28000;BME280;15328;50.860;10.562;2023-01-09T09:35:58;94875.47;;;7.23;64.34
28000;BME280;15328;50.860;10.562;2023-01-09T09:47:10;94871.59;;;7.02;64.63
28000;BME280;15328;50.860;10.562;2023-01-09T10:03:58;94887.78;;;7.06;65.20
28000;BME280;15328;50.860;10.562;2023-01-09T10:14:47;94889.88;;;7.04;64.84
28000;BME280;15328;50.860;10.562;2023-01-09T10:30:43;94909.53;;;7.08;64.29
28000;BME280;15328;50.860;10.562;2023-01-09T10:41:02;94905.88;;;6.97;64.27
28000;BME280;15328;50.860;10.562;2023-01-09T10:46:10;94903.56;;;7.01;64.50
28000;BME280;15328;50.860;10.562;2023-01-09T10:51:21;94921.03;;;7.13;64.58
28000;BME280;15328;50.860;10.562;2023-01-09T10:56:26;94915.28;;;7.17;64.75
28000;BME280;15328;50.860;10.562;2023-01-09T11:01:30;94902.47;;;7.25;64.39
28000;BME280;15328;50.860;10.562;2023-01-09T11:06:37;94907.63;;;7.32;64.00
28000;BME280;15328;50.860;10.562;2023-01-09T11:11:40;94900.03;;;7.35;63.49
28000;BME280;15328;50.860;10.562;2023-01-09T11:16:55;94902.91;;;7.46;63.09
28000;BME280;15328;50.860;10.562;2023-01-09T11:22:15;94905.06;;;7.49;63.21
28000;BME280;15328;50.860;10.562;2023-01-09T11:27:18;94899.06;;;7.53;62.74
28000;BME280;15328;50.860;10.562;2023-01-09T11:32:22;94904.44;;;7.58;62.46
28000;BME280;15328;50.860;10.562;2023-01-09T11:37:27;94886.13;;;7.68;62.43
28000;BME280;15328;50.860;10.562;2023-01-09T11:42:28;94902.09;;;7.73;61.83
28000;BME280;15328;50.860;10.562;2023-01-09T11:47:47;94908.22;;;7.62;62.05
28000;BME280;15328;50.860;10.562;2023-01-09T11:53:11;94895.72;;;7.58;61.61
28000;BME280;15328;50.860;10.562;2023-01-09T11:58:13;94898.78;;;7.66;62.10
28000;BME280;15328;50.860;10.562;2023-01-09T12:03:28;94895.22;;;7.72;62.46
28000;BME280;15328;50.860;10.562;2023-01-09T12:19:16;94894.91;;;7.86;62.13
28000;BME280;15328;50.860;10.562;2023-01-09T12:24:40;94912.88;;;7.84;62.83
28000;BME280;15328;50.860;10.562;2023-01-09T12:30:14;94916.56;;;7.83;62.49
28000;BME280;15328;50.860;10.562;2023-01-09T12:46:18;94903.50;;;7.93;62.25
28000;BME280;15328;50.860;10.562;2023-01-09T12:56:36;94905.22;;;7.99;61.80
28000;BME280;15328;50.860;10.562;2023-01-09T13:01:43;94927.19;;;7.99;62.23
28000;BME280;15328;50.860;10.562;2023-01-09T13:06:48;94901.47;;;7.83;62.07
28000;BME280;15328;50.860;10.562;2023-01-09T13:11:59;94908.06;;;7.81;61.50
28000;BME280;15328;50.860;10.562;2023-01-09T13:17:02;94913.97;;;7.71;61.75
28000;BME280;15328;50.860;10.562;2023-01-09T13:22:04;94935.25;;;7.64;62.77
28000;BME280;15328;50.860;10.562;2023-01-09T13:27:12;94946.31;;;7.61;62.48
28000;BME280;15328;50.860;10.562;2023-01-09T13:37:51;94941.97;;;7.55;62.64
28000;BME280;15328;50.860;10.562;2023-01-09T13:43:06;94951.91;;;7.48;62.91
28000;BME280;15328;50.860;10.562;2023-01-09T13:58:18;94974.84;;;7.19;65.23
28000;BME280;15328;50.860;10.562;2023-01-09T14:03:33;94995.66;;;7.16;65.76
28000;BME280;15328;50.860;10.562;2023-01-09T14:08:34;94999.31;;;7.03;66.41
28000;BME280;15328;50.860;10.562;2023-01-09T14:13:38;95004.63;;;7.15;66.10
28000;BME280;15328;50.860;10.562;2023-01-09T14:18:47;95017.72;;;7.21;65.91
28000;BME280;15328;50.860;10.562;2023-01-09T14:23:59;95026.34;;;7.17;66.82
28000;BME280;15328;50.860;10.562;2023-01-09T14:34:34;95029.78;;;6.94;67.03
28000;BME280;15328;50.860;10.562;2023-01-09T14:39:39;95039.66;;;6.98;66.82
28000;BME280;15328;50.860;10.562;2023-01-09T14:44:52;95038.94;;;6.79;66.78
28000;BME280;15328;50.860;10.562;2023-01-09T14:49:58;95052.38;;;6.78;67.04
28000;BME280;15328;50.860;10.562;2023-01-09T14:55:12;95064.50;;;6.86;67.37
28000;BME280;15328;50.860;10.562;2023-01-09T15:00:16;95077.06;;;6.60;68.38
28000;BME280;15328;50.860;10.562;2023-01-09T15:05:24;95083.50;;;6.64;68.35
28000;BME280;15328;50.860;10.562;2023-01-09T15:10:29;95098.69;;;6.69;68.58
28000;BME280;15328;50.860;10.562;2023-01-09T15:15:30;95098.22;;;6.60;68.25
28000;BME280;15328;50.860;10.562;2023-01-09T15:20:32;95100.41;;;6.75;68.75
28000;BME280;15328;50.860;10.562;2023-01-09T15:25:35;95100.06;;;6.71;68.73
28000;BME280;15328;50.860;10.562;2023-01-09T15:30:36;95107.06;;;6.66;68.73
28000;BME280;15328;50.860;10.562;2023-01-09T15:35:41;95093.19;;;6.82;68.77
28000;BME280;15328;50.860;10.562;2023-01-09T15:40:51;95100.47;;;6.87;68.52
28000;BME280;15328;50.860;10.562;2023-01-09T15:45:53;95100.31;;;6.81;67.92
28000;BME280;15328;50.860;10.562;2023-01-09T15:51:00;95110.34;;;6.91;67.86
28000;BME280;15328;50.860;10.562;2023-01-09T16:01:13;95116.69;;;6.90;68.28
28000;BME280;15328;50.860;10.562;2023-01-09T16:06:28;95122.19;;;6.89;68.49
28000;BME280;15328;50.860;10.562;2023-01-09T16:11:36;95132.03;;;6.81;68.14
28000;BME280;15328;50.860;10.562;2023-01-09T16:16:37;95132.59;;;6.72;68.40
28000;BME280;15328;50.860;10.562;2023-01-09T16:21:38;95128.78;;;6.68;68.68
28000;BME280;15328;50.860;10.562;2023-01-09T16:26:38;95124.34;;;6.50;68.00
28000;BME280;15328;50.860;10.562;2023-01-09T16:31:39;95123.97;;;6.16;68.70
28000;BME280;15328;50.860;10.562;2023-01-09T16:36:39;95117.31;;;6.44;68.22
28000;BME280;15328;50.860;10.562;2023-01-09T16:41:41;95122.59;;;6.44;68.34
28000;BME280;15328;50.860;10.562;2023-01-09T16:47:00;95142.44;;;6.35;68.72
28000;BME280;15328;50.860;10.562;2023-01-09T16:52:01;95153.00;;;6.35;68.92
28000;BME280;15328;50.860;10.562;2023-01-09T16:57:02;95156.50;;;6.29;69.64
28000;BME280;15328;50.860;10.562;2023-01-09T17:02:17;95162.75;;;6.34;69.69
28000;BME280;15328;50.860;10.562;2023-01-09T17:07:19;95158.69;;;6.50;69.48
28000;BME280;15328;50.860;10.562;2023-01-09T17:12:22;95180.19;;;6.54;69.05
28000;BME280;15328;50.860;10.562;2023-01-09T17:17:25;95189.94;;;6.53;69.56
28000;BME280;15328;50.860;10.562;2023-01-09T17:22:25;95204.50;;;6.62;69.64
28000;BME280;15328;50.860;10.562;2023-01-09T17:27:29;95208.16;;;6.61;69.10
28000;BME280;15328;50.860;10.562;2023-01-09T17:32:49;95231.84;;;6.68;69.63
28000;BME280;15328;50.860;10.562;2023-01-09T17:37:50;95243.81;;;6.70;69.62
28000;BME280;15328;50.860;10.562;2023-01-09T17:42:50;95261.88;;;6.73;69.15
28000;BME280;15328;50.860;10.562;2023-01-09T17:47:50;95281.25;;;6.67;69.36
28000;BME280;15328;50.860;10.562;2023-01-09T17:52:51;95294.91;;;6.46;68.30
28000;BME280;15328;50.860;10.562;2023-01-09T17:57:51;95284.53;;;6.26;68.08
28000;BME280;15328;50.860;10.562;2023-01-09T18:02:52;95297.66;;;5.89;66.68
28000;BME280;15328;50.860;10.562;2023-01-09T18:07:53;95304.25;;;5.74;66.88
28000;BME280;15328;50.860;10.562;2023-01-09T18:12:54;95304.25;;;5.49;67.07
28000;BME280;15328;50.860;10.562;2023-01-09T18:17:55;95318.09;;;5.38;68.55
28000;BME280;15328;50.860;10.562;2023-01-09T18:22:55;95324.06;;;5.26;68.95
28000;BME280;15328;50.860;10.562;2023-01-09T18:27:55;95335.41;;;5.27;68.44
28000;BME280;15328;50.860;10.562;2023-01-09T18:32:56;95341.00;;;4.99;68.72
28000;BME280;15328;50.860;10.562;2023-01-09T18:37:56;95354.19;;;4.92;69.32
28000;BME280;15328;50.860;10.562;2023-01-09T18:42:57;95348.97;;;4.86;69.72
28000;BME280;15328;50.860;10.562;2023-01-09T18:47:57;95342.09;;;4.78;69.47
28000;BME280;15328;50.860;10.562;2023-01-09T18:52:58;95342.94;;;4.72;70.26
28000;BME280;15328;50.860;10.562;2023-01-09T18:57:58;95364.59;;;4.81;70.86
28000;BME280;15328;50.860;10.562;2023-01-09T19:02:59;95386.84;;;4.91;70.86
28000;BME280;15328;50.860;10.562;2023-01-09T19:07:59;95379.38;;;4.82;70.60
28000;BME280;15328;50.860;10.562;2023-01-09T19:13:00;95381.81;;;4.83;70.75
28000;BME280;15328;50.860;10.562;2023-01-09T19:18:00;95397.53;;;5.10;70.30
28000;BME280;15328;50.860;10.562;2023-01-09T19:23:00;95405.03;;;5.13;70.94
28000;BME280;15328;50.860;10.562;2023-01-09T19:28:01;95405.28;;;4.98;70.70
28000;BME280;15328;50.860;10.562;2023-01-09T19:33:01;95435.69;;;5.01;70.18
28000;BME280;15328;50.860;10.562;2023-01-09T19:38:02;95422.06;;;5.10;70.55
28000;BME280;15328;50.860;10.562;2023-01-09T19:43:02;95415.84;;;4.91;70.25
28000;BME280;15328;50.860;10.562;2023-01-09T19:48:03;95441.97;;;4.93;70.52
28000;BME280;15328;50.860;10.562;2023-01-09T19:53:03;95435.47;;;5.09;70.27
28000;BME280;15328;50.860;10.562;2023-01-09T19:58:04;95452.69;;;5.11;70.55
28000;BME280;15328;50.860;10.562;2023-01-09T20:03:04;95458.53;;;5.20;69.77
28000;BME280;15328;50.860;10.562;2023-01-09T20:08:04;95463.22;;;5.18;69.93
28000;BME280;15328;50.860;10.562;2023-01-09T20:13:07;95469.31;;;5.12;70.48
28000;BME280;15328;50.860;10.562;2023-01-09T20:18:07;95482.69;;;5.17;70.18
28000;BME280;15328;50.860;10.562;2023-01-09T20:23:08;95496.28;;;5.20;70.13
28000;BME280;15328;50.860;10.562;2023-01-09T20:28:09;95497.91;;;5.15;70.23
28000;BME280;15328;50.860;10.562;2023-01-09T20:33:10;95508.22;;;5.30;69.88
28000;BME280;15328;50.860;10.562;2023-01-09T20:38:10;95517.56;;;5.25;69.69
28000;BME280;15328;50.860;10.562;2023-01-09T20:43:12;95515.72;;;5.33;69.81
28000;BME280;15328;50.860;10.562;2023-01-09T20:48:13;95530.75;;;5.25;69.34
28000;BME280;15328;50.860;10.562;2023-01-09T20:53:13;95522.44;;;5.28;70.06
28000;BME280;15328;50.860;10.562;2023-01-09T20:58:13;95539.25;;;5.34;69.86
28000;BME280;15328;50.860;10.562;2023-01-09T21:03:14;95536.63;;;5.14;70.30
28000;BME280;15328;50.860;10.562;2023-01-09T21:08:15;95536.63;;;5.14;70.79
28000;BME280;15328;50.860;10.562;2023-01-09T21:13:16;95553.06;;;5.23;70.40
28000;BME280;15328;50.860;10.562;2023-01-09T21:18:16;95554.69;;;5.17;70.89
28000;BME280;15328;50.860;10.562;2023-01-09T21:23:16;95559.38;;;5.22;70.08
28000;BME280;15328;50.860;10.562;2023-01-09T21:28:17;95564.59;;;5.35;69.69
28000;BME280;15328;50.860;10.562;2023-01-09T21:33:19;95585.91;;;5.34;69.38
28000;BME280;15328;50.860;10.562;2023-01-09T21:38:23;95584.88;;;5.35;69.16
28000;BME280;15328;50.860;10.562;2023-01-09T21:43:26;95592.38;;;5.38;69.09
28000;BME280;15328;50.860;10.562;2023-01-09T21:48:45;95593.41;;;5.30;69.64
28000;BME280;15328;50.860;10.562;2023-01-09T21:53:46;95609.47;;;5.22;69.50
28000;BME280;15328;50.860;10.562;2023-01-09T21:58:47;95628.72;;;5.29;69.61
28000;BME280;15328;50.860;10.562;2023-01-09T22:03:48;95629.53;;;5.30;69.56
28000;BME280;15328;50.860;10.562;2023-01-09T22:08:49;95637.63;;;5.41;69.29
28000;BME280;15328;50.860;10.562;2023-01-09T22:13:50;95652.84;;;5.39;69.24
28000;BME280;15328;50.860;10.562;2023-01-09T22:18:50;95656.72;;;5.37;69.65
28000;BME280;15328;50.860;10.562;2023-01-09T22:23:51;95660.75;;;5.46;69.23
28000;BME280;15328;50.860;10.562;2023-01-09T22:28:51;95673.34;;;5.50;68.72
28000;BME280;15328;50.860;10.562;2023-01-09T22:33:52;95687.94;;;5.46;68.87
28000;BME280;15328;50.860;10.562;2023-01-09T22:38:54;95694.84;;;5.47;68.85
28000;BME280;15328;50.860;10.562;2023-01-09T22:43:55;95707.22;;;5.47;68.73
28000;BME280;15328;50.860;10.562;2023-01-09T22:48:55;95715.94;;;5.47;68.98
28000;BME280;15328;50.860;10.562;2023-01-09T22:53:56;95721.44;;;5.52;68.95
28000;BME280;15328;50.860;10.562;2023-01-09T22:58:57;95732.63;;;5.48;68.99
28000;BME280;15328;50.860;10.562;2023-01-09T23:03:58;95738.88;;;5.47;69.12
28000;BME280;15328;50.860;10.562;2023-01-09T23:08:59;95746.19;;;5.45;69.25
28000;BME280;15328;50.860;10.562;2023-01-09T23:13:59;95755.72;;;5.46;69.34
28000;BME280;15328;50.860;10.562;2023-01-09T23:18:59;95769.34;;;5.49;68.96
28000;BME280;15328;50.860;10.562;2023-01-09T23:24:00;95781.94;;;5.54;69.00
28000;BME280;15328;50.860;10.562;2023-01-09T23:29:00;95779.91;;;5.49;69.21
28000;BME280;15328;50.860;10.562;2023-01-09T23:34:02;95788.63;;;5.56;69.03
28000;BME280;15328;50.860;10.562;2023-01-09T23:39:03;95792.28;;;5.55;68.74
28000;BME280;15328;50.860;10.562;2023-01-09T23:44:07;95802.41;;;5.52;69.50
28000;BME280;15328;50.860;10.562;2023-01-09T23:49:08;95823.31;;;5.53;69.27
28000;BME280;15328;50.860;10.562;2023-01-09T23:54:08;95817.44;;;5.51;69.46
28000;BME280;15328;50.860;10.562;2023-01-09T23:59:11;95813.78;;;5.52;69.15
